Terminal Aerodrome Forecast
Issued by NWS

Home | Current Version | Previous Version | Text Only | Print | Product List | Glossary On
Versions: 1 2 3 4 5 6 7 8 9 10 11 12 13 14 15 16 17 18
000
FTUS43 KDVN 271600 AAA
TAFCID
TAF AMD
KCID 271607Z 2716/2812 21013G20KT P6SM BKN200
     FM272100 24007KT P6SM BKN060 OVC200 PROB30 2801/2802 4SM -SHRA
      BR BKN025 OVC040
     FM280200 32012G18KT P6SM BKN035
     FM280800 30010KT P6SM SKC=

USA.gov is the U.S. government's official web portal to all federal, state and local government web resources and services.